Aérodrome :
LOGIN :

S'inscrire | Disclaimer

   EN    FR    IT 

 










Légende :    VFR   VFR Marginal   IFR   IFR Intensif   IFR Très Intensif
Visi : 
Plafond : 
>= 8 km
>= 3000ft
5 à 8 km
1000 à 3000 ft
1500m à 5 km
500 à 1000 ft
800 à 1500m
200 à 500 ft
< 800m
< 200 ft
Symboles :   Orages  Brouillard  Fortes neiges  Fortes précipitations  Vent > 20 kt
SIGMETs :   Divers  Orages  Givrage  Turbulence  Onde Orograph.  Cendres Volcan.






- Altitude de l'aérodrome : 74 ft
- Code IATA : NDZ


ETMN - Cuxhaven Nordholz Sea AB

DERNIER METAR :
  • 182310Z 08003KT 9999 15/14 Q1023 BLU+FCST CNL

METARs EXPIRÉS :
  • 182320Z 07002KT 9999 MIFG 15/14 Q1023 BLU+
  • 182220Z 10002KT 9999 FEW300 15/13 Q1023 BLU+BLU+
  • 182120Z 07003KT 9999 FEW300 16/14 Q1023 BLU+BLU+
  • 182020Z 03003KT 9999 FEW300 16/14 Q1023 BLU+BLU+
  • 181920Z 03003KT 9999 FEW300 18/15 Q1023 BLU+BLU+

TAF TAF ETMN
Valide du 18 à 20h jusqu'au 19 à 05h UTC


181910Z 1820/1905 08003KT 9999 NSW SCT350
PROB30 1821/1823 08003KT 6000 MIFG SCT350
TEMPO 1823/1905 VRB02KT 0500 FG SCT350



MET'MAP, la Météo Aéronautique d'un coup d'oeil ! - Copyright ORBIFLY Décembre 2007 - Disclaimer

ORBIFLY MET'MAP TEAM :

Programmation & Développement : Alexandra Zaïnal
Sur une idée originale de : Baudouin d'Aumeries
Soutien technique & logistique : Manuel Goepfert
Assistance : Marc-Olivier Méhu




SOURCES & CREDITS :

   NOAA